Time;durP1;ratioP1;P1;durP2;ratioP2;P2;SDS_P1;SDS_P2;PMS_P1;PMS_P2;Temp;Humidity;BMP_temperature;BMP_pressure;BME280_temperature;BME280_humidity;BME280_pressure;Samples;Min_cycle;Max_cycle;Signal;HPM_P1;HPM_P2
2023/09/18 00:00:58;;;;;;;;;1.25;1.25;;;;;21.36;87.69;100367.28;5088740;27;63682;-60
2023/09/18 00:03:26;;;;;;;;;3.25;3.25;;;;;21.32;87.34;100369.47;5081262;27;50043;-59
2023/09/18 00:05:52;;;;;;;;;3.75;2.75;;;;;21.25;87.89;100375.66;5089457;27;45304;-59
2023/09/18 00:08:19;;;;;;;;;4.00;2.25;;;;;21.19;88.21;100379.84;5071690;27;45330;-59
2023/09/18 00:10:53;;;;;;;;;2.50;2.50;;;;;21.14;87.97;100376.75;5078218;27;45403;-59
2023/09/18 00:13:19;;;;;;;;;2.50;2.00;;;;;21.08;87.96;100378.25;5086293;27;45679;-59
2023/09/18 00:15:46;;;;;;;;;2.50;2.00;;;;;21.04;88.86;100381.38;5079106;27;45834;-59
2023/09/18 00:18:13;;;;;;;;;3.50;3.00;;;;;20.95;88.53;100369.66;5090656;27;46184;-59
2023/09/18 00:20:38;;;;;;;;;3.33;3.33;;;;;20.89;89.23;100371.13;5085295;27;45571;-59
2023/09/18 00:23:03;;;;;;;;;3.00;2.50;;;;;20.87;89.32;100372.28;5069629;27;46444;-59
2023/09/18 00:25:30;;;;;;;;;4.00;3.00;;;;;20.87;89.67;100373.16;5081539;27;69105;-59
2023/09/18 00:27:56;;;;;;;;;3.50;3.50;;;;;20.88;90.03;100371.28;5081287;27;46444;-59
2023/09/18 00:30:21;;;;;;;;;3.00;2.00;;;;;20.88;90.09;100364.00;5090372;27;63459;-59
2023/09/18 00:32:49;;;;;;;;;3.00;3.00;;;;;20.85;90.15;100356.22;5092335;27;69074;-59
2023/09/18 00:35:15;;;;;;;;;3.00;2.50;;;;;20.83;89.89;100360.91;5093217;27;45809;-59
2023/09/18 00:37:40;;;;;;;;;2.00;2.00;;;;;20.77;89.49;100350.75;5085051;27;45719;-59
2023/09/18 00:40:07;;;;;;;;;2.25;2.25;;;;;20.70;89.68;100357.75;5086239;27;45397;-59
2023/09/18 00:42:32;;;;;;;;;2.00;2.00;;;;;20.63;90.12;100355.63;5082713;27;45454;-60
2023/09/18 00:44:57;;;;;;;;;2.00;2.00;;;;;20.61;89.89;100365.75;5084740;27;69097;-58
2023/09/18 00:47:23;;;;;;;;;1.67;1.00;;;;;20.61;90.13;100375.69;5083896;27;46625;-59
2023/09/18 00:49:50;;;;;;;;;2.00;2.00;;;;;20.58;91.02;100378.72;5080439;27;45488;-59
2023/09/18 00:52:17;;;;;;;;;7.50;1.50;;;;;20.47;90.78;100374.38;5080692;27;45232;-59
2023/09/18 00:54:42;;;;;;;;;1.50;1.50;;;;;20.41;90.25;100383.91;5085367;27;45525;-59
2023/09/18 00:57:08;;;;;;;;;1.00;1.00;;;;;20.36;90.92;100386.22;5085396;27;45389;-59
2023/09/18 00:59:34;;;;;;;;;2.00;2.00;;;;;20.32;90.84;100385.69;5084164;27;45573;-59
2023/09/18 01:01:59;;;;;;;;;4.25;2.00;;;;;20.29;90.52;100380.59;5091081;27;65774;-59
2023/09/18 01:04:26;;;;;;;;;2.25;1.00;;;;;20.26;89.50;100371.91;5092489;27;68150;-59
2023/09/18 01:06:52;;;;;;;;;2.75;1.50;;;;;20.20;89.88;100361.75;5077569;27;47101;-58
2023/09/18 01:09:18;;;;;;;;;1.00;1.00;;;;;20.14;89.49;100369.44;5096016;27;45597;-59
2023/09/18 01:11:55;;;;;;;;;1.00;1.00;;;;;20.11;88.79;100375.13;5067874;27;52105;-59
2023/09/18 01:14:26;;;;;;;;;1.00;1.00;;;;;20.08;88.74;100380.00;5065617;27;45499;-59
2023/09/18 01:17:01;;;;;;;;;1.50;1.50;;;;;20.05;88.26;100367.66;5075057;27;45376;-59
2023/09/18 01:19:41;;;;;;;;;1.00;1.00;;;;;20.06;88.13;100373.88;5087369;27;45589;-59
2023/09/18 01:22:09;;;;;;;;;2.00;2.00;;;;;20.03;88.48;100360.69;5090363;27;45244;-59
2023/09/18 01:24:35;;;;;;;;;0.00;0.00;;;;;19.98;87.85;100353.88;5088945;27;45352;-59
2023/09/18 01:27:01;;;;;;;;;1.00;1.00;;;;;19.98;88.01;100356.56;5084952;27;46899;-59
2023/09/18 01:29:26;;;;;;;;;0.75;0.75;;;;;20.03;87.58;100358.84;5091171;27;45516;-59
2023/09/18 01:31:52;;;;;;;;;1.50;1.00;;;;;20.08;87.73;100371.91;5084262;27;68968;-58
2023/09/18 01:34:22;;;;;;;;;2.00;2.00;;;;;20.10;87.00;100373.44;5087734;27;45546;-59
2023/09/18 01:36:48;;;;;;;;;2.00;2.00;;;;;20.11;86.90;100371.59;5067864;27;46350;-58
2023/09/18 01:39:15;;;;;;;;;1.00;1.00;;;;;20.12;86.84;100366.03;5079754;27;45560;-58
2023/09/18 01:41:40;;;;;;;;;2.00;1.00;;;;;20.12;86.23;100371.44;5087241;27;67494;-59
2023/09/18 01:44:06;;;;;;;;;0.50;0.25;;;;;20.09;86.43;100379.84;5073918;27;65473;-58
2023/09/18 01:46:35;;;;;;;;;0.25;0.25;;;;;20.07;86.06;100378.28;5094628;27;61354;-58
2023/09/18 01:49:01;;;;;;;;;0.00;0.00;;;;;20.04;86.28;100375.88;5088098;27;45567;-58
2023/09/18 01:51:26;;;;;;;;;1.00;1.00;;;;;20.01;86.01;100368.91;5090998;27;45287;-58
2023/09/18 01:53:53;;;;;;;;;1.25;1.00;;;;;19.98;85.12;100361.97;5083444;27;66412;-58
2023/09/18 01:56:18;;;;;;;;;0.00;0.00;;;;;19.95;86.08;100362.28;5089545;27;45520;-59
2023/09/18 01:58:43;;;;;;;;;1.00;1.00;;;;;19.91;85.73;100360.88;5088307;27;45512;-58
2023/09/18 02:01:09;;;;;;;;;1.00;1.00;;;;;19.92;86.51;100370.69;5096190;27;68173;-58
2023/09/18 02:03:34;;;;;;;;;2.75;0.00;;;;;19.95;86.30;100361.44;5088957;27;70238;-59
2023/09/18 02:06:00;;;;;;;;;0.00;0.00;;;;;19.95;85.47;100362.28;5084911;27;46176;-58
2023/09/18 02:08:25;;;;;;;;;2.00;0.25;;;;;19.96;85.91;100355.03;5086493;27;70261;-58
2023/09/18 02:10:50;;;;;;;;;0.00;0.00;;;;;19.99;86.62;100355.56;5088407;27;62627;-58
2023/09/18 02:13:17;;;;;;;;;0.00;0.00;;;;;20.00;86.07;100357.28;5089363;27;45665;-58
2023/09/18 02:15:43;;;;;;;;;0.75;0.75;;;;;20.01;85.93;100360.81;5093799;27;46017;-58
2023/09/18 02:18:09;;;;;;;;;0.50;0.50;;;;;19.98;85.64;100358.44;5092071;27;45672;-58
2023/09/18 02:20:40;;;;;;;;;0.25;0.25;;;;;19.96;85.70;100363.97;5089944;27;45516;-59
2023/09/18 02:23:06;;;;;;;;;3.00;0.50;;;;;19.97;85.76;100362.13;5089913;27;45396;-59
2023/09/18 02:25:31;;;;;;;;;1.00;1.00;;;;;19.98;85.74;100366.53;5093052;27;64342;-58
2023/09/18 02:27:56;;;;;;;;;1.00;1.00;;;;;19.93;85.72;100364.28;5093158;27;69087;-58
2023/09/18 02:30:22;;;;;;;;;0.00;0.00;;;;;19.90;85.47;100372.66;5084722;27;66908;-58
2023/09/18 02:32:47;;;;;;;;;1.00;1.00;;;;;19.81;85.76;100368.13;5088556;27;45754;-59
2023/09/18 02:35:13;;;;;;;;;0.00;0.00;;;;;19.77;85.96;100364.84;5088025;27;45962;-59
2023/09/18 02:37:38;;;;;;;;;1.00;1.00;;;;;19.75;85.47;100364.16;5081294;27;67951;-58
2023/09/18 02:40:05;;;;;;;;;2.00;1.00;;;;;19.71;85.99;100365.47;5085109;27;62524;-58
2023/09/18 02:42:30;;;;;;;;;3.00;1.00;;;;;19.65;86.79;100366.88;5083279;27;45592;-58
2023/09/18 02:44:55;;;;;;;;;2.00;1.00;;;;;19.59;87.88;100378.25;5096430;27;74315;-58
2023/09/18 02:47:21;;;;;;;;;1.67;1.00;;;;;19.56;87.19;100383.13;5090316;27;71143;-58
2023/09/18 02:49:46;;;;;;;;;3.33;1.00;;;;;19.51;87.54;100372.75;5091863;27;63570;-58
2023/09/18 02:52:11;;;;;;;;;2.75;1.00;;;;;19.47;86.84;100369.47;5076115;27;45289;-58
2023/09/18 02:54:37;;;;;;;;;1.00;1.00;;;;;19.46;87.28;100375.03;5085397;27;73008;-58
2023/09/18 02:57:02;;;;;;;;;1.00;1.00;;;;;19.44;88.45;100377.03;5088761;27;72742;-58
2023/09/18 02:59:27;;;;;;;;;1.00;1.00;;;;;19.39;88.12;100373.91;5093936;27;56166;-58
2023/09/18 03:01:53;;;;;;;;;3.67;1.00;;;;;19.34;87.79;100372.47;5094400;27;66991;-58
2023/09/18 03:04:19;;;;;;;;;2.00;2.00;;;;;19.32;87.68;100371.78;5091546;27;45437;-59
2023/09/18 03:06:44;;;;;;;;;2.00;2.00;;;;;19.31;88.11;100374.63;5089710;27;46715;-58
2023/09/18 03:09:10;;;;;;;;;1.00;1.00;;;;;19.27;89.43;100374.06;5086074;27;45431;-58
2023/09/18 03:11:35;;;;;;;;;1.33;1.33;;;;;19.22;89.21;100367.41;5090050;27;55875;-58
2023/09/18 03:14:01;;;;;;;;;1.67;1.67;;;;;19.18;90.02;100369.53;5091156;27;45875;-58
2023/09/18 03:16:26;;;;;;;;;0.00;0.00;;;;;19.14;88.78;100368.97;5089496;27;67272;-58
2023/09/18 03:18:51;;;;;;;;;2.00;1.00;;;;;19.12;89.29;100362.00;5085341;27;67688;-58
2023/09/18 03:21:16;;;;;;;;;1.00;1.00;;;;;19.13;89.57;100361.03;5093370;27;45484;-58
2023/09/18 03:23:42;;;;;;;;;2.00;2.00;;;;;19.16;89.16;100358.91;5090128;27;68497;-58
2023/09/18 03:26:07;;;;;;;;;1.00;1.00;;;;;19.18;89.16;100356.91;5070870;27;45336;-58
2023/09/18 03:28:32;;;;;;;;;0.75;0.75;;;;;19.21;89.25;100358.47;5090282;27;65729;-58
2023/09/18 03:30:58;;;;;;;;;2.75;1.00;;;;;19.23;88.71;100353.78;5093830;27;45307;-58
2023/09/18 03:33:24;;;;;;;;;1.00;1.00;;;;;19.24;88.94;100354.63;5088381;27;45610;-58
2023/09/18 03:35:50;;;;;;;;;1.00;1.00;;;;;19.23;89.03;100355.63;5088028;27;50986;-59
2023/09/18 03:38:16;;;;;;;;;2.00;1.00;;;;;19.20;89.02;100356.75;5085423;27;45452;-58
2023/09/18 03:40:41;;;;;;;;;1.00;1.00;;;;;19.19;89.12;100355.06;5086978;27;45423;-58
2023/09/18 03:43:07;;;;;;;;;0.00;0.00;;;;;19.21;89.31;100358.47;5085155;27;45948;-58
2023/09/18 03:45:33;;;;;;;;;2.25;1.00;;;;;19.20;88.86;100348.66;5094561;27;45657;-59
2023/09/18 03:47:58;;;;;;;;;1.33;1.33;;;;;19.18;89.38;100350.66;5083554;27;67947;-58
2023/09/18 03:50:23;;;;;;;;;1.00;1.00;;;;;19.17;88.99;100352.50;5089289;27;65801;-58
2023/09/18 03:52:48;;;;;;;;;1.33;1.33;;;;;19.17;89.22;100347.09;5090953;27;71571;-58
2023/09/18 03:55:14;;;;;;;;;1.67;1.67;;;;;19.17;88.75;100340.88;5085769;27;69226;-58
2023/09/18 03:57:40;;;;;;;;;1.25;1.00;;;;;19.16;89.15;100340.03;5094487;27;45414;-58
2023/09/18 04:00:07;;;;;;;;;2.00;0.67;;;;;19.17;89.25;100339.00;5075952;27;45422;-58
2023/09/18 04:02:32;;;;;;;;;1.00;1.00;;;;;19.18;89.29;100337.19;5091148;27;46796;-58
2023/09/18 04:04:58;;;;;;;;;1.00;1.00;;;;;19.18;89.02;100338.03;5091174;27;65270;-59
2023/09/18 04:07:23;;;;;;;;;3.25;2.25;;;;;19.20;89.19;100342.44;5084913;27;65970;-58
2023/09/18 04:09:48;;;;;;;;;1.00;1.00;;;;;19.20;88.85;100337.88;5081430;27;70316;-59
2023/09/18 04:12:14;;;;;;;;;1.00;1.00;;;;;19.21;89.02;100331.50;5082830;27;47073;-58
2023/09/18 04:14:39;;;;;;;;;1.50;1.50;;;;;19.24;88.92;100333.06;5095283;27;45420;-59
2023/09/18 04:17:05;;;;;;;;;2.00;2.00;;;;;19.23;88.77;100339.44;5085823;27;45700;-58
2023/09/18 04:19:30;;;;;;;;;1.00;1.00;;;;;19.23;89.12;100328.66;5095755;27;45367;-58
2023/09/18 04:21:56;;;;;;;;;2.00;2.00;;;;;19.18;88.77;100343.41;5089282;27;46986;-58
2023/09/18 04:24:22;;;;;;;;;1.75;1.75;;;;;19.20;88.85;100339.75;5089120;27;45470;-58
2023/09/18 04:26:50;;;;;;;;;1.67;1.00;;;;;19.21;89.11;100331.50;5090528;27;45613;-58
2023/09/18 04:29:16;;;;;;;;;2.75;2.75;;;;;19.21;89.21;100334.19;5088581;27;44989;-59
2023/09/18 04:31:41;;;;;;;;;1.75;1.00;;;;;19.20;89.57;100342.44;5087895;27;45986;-59
2023/09/18 04:34:06;;;;;;;;;1.00;1.00;;;;;19.19;89.50;100341.59;5090855;27;45475;-58
2023/09/18 04:36:32;;;;;;;;;1.25;1.25;;;;;19.18;89.11;100339.88;5091013;27;45373;-58
2023/09/18 04:38:57;;;;;;;;;4.00;3.00;;;;;19.16;89.26;100339.16;5094811;27;64962;-58
2023/09/18 04:41:22;;;;;;;;;1.00;1.00;;;;;19.11;89.08;100342.31;5091651;27;46060;-58
2023/09/18 04:43:48;;;;;;;;;2.25;1.00;;;;;19.09;89.15;100335.38;5087101;27;65068;-58
2023/09/18 04:46:13;;;;;;;;;1.00;1.00;;;;;19.07;89.52;100338.16;5085881;27;46529;-58
2023/09/18 04:48:38;;;;;;;;;2.75;2.00;;;;;19.06;89.33;100332.94;5093619;27;45627;-58
2023/09/18 04:51:04;;;;;;;;;1.50;1.50;;;;;19.06;89.66;100330.25;5089065;27;45628;-58
2023/09/18 04:53:30;;;;;;;;;2.00;2.00;;;;;19.04;90.19;100330.38;5081193;27;45342;-58
2023/09/18 04:55:55;;;;;;;;;3.00;3.00;;;;;19.00;89.77;100334.38;5090881;27;45225;-58
2023/09/18 04:58:21;;;;;;;;;2.33;2.33;;;;;18.99;89.80;100336.22;5094004;27;45347;-58
2023/09/18 05:00:46;;;;;;;;;2.00;2.00;;;;;18.98;89.98;100333.66;5091706;27;46135;-58
2023/09/18 05:03:12;;;;;;;;;4.00;3.00;;;;;18.94;90.98;100330.41;5090817;27;52521;-58
2023/09/18 05:05:38;;;;;;;;;3.00;1.00;;;;;18.90;91.20;100338.91;5093456;27;45427;-58
2023/09/18 05:08:07;;;;;;;;;1.25;1.25;;;;;18.87;90.50;100334.63;5091745;27;52592;-59
2023/09/18 05:10:33;;;;;;;;;2.25;2.25;;;;;18.84;91.69;100329.53;5088176;27;46079;-59
2023/09/18 05:12:58;;;;;;;;;5.00;3.00;;;;;18.82;91.04;100335.03;5097171;27;45668;-58
2023/09/18 05:15:26;;;;;;;;;3.25;2.75;;;;;18.81;91.99;100343.25;5090080;27;57421;-58
2023/09/18 05:17:55;;;;;;;;;1.25;1.25;;;;;18.77;91.94;100334.63;5090249;27;45418;-59
2023/09/18 05:20:22;;;;;;;;;2.25;2.25;;;;;18.74;92.30;100339.44;5085168;27;45485;-58
2023/09/18 05:22:48;;;;;;;;;2.33;2.33;;;;;18.73;93.04;100337.75;5082559;27;45468;-59
2023/09/18 05:25:16;;;;;;;;;3.00;3.00;;;;;18.73;92.64;100341.28;5087375;27;45394;-58
2023/09/18 05:27:45;;;;;;;;;2.75;2.75;;;;;18.77;91.99;100347.22;5088160;27;45493;-58
2023/09/18 05:30:12;;;;;;;;;2.75;2.75;;;;;18.84;93.01;100356.47;5089479;27;45295;-58
2023/09/18 05:32:37;;;;;;;;;2.50;2.50;;;;;18.89;92.42;100347.94;5098025;27;45364;-58
2023/09/18 05:35:06;;;;;;;;;3.00;1.33;;;;;18.93;91.63;100350.25;5093269;27;62656;-58
2023/09/18 05:37:31;;;;;;;;;4.00;4.00;;;;;18.97;92.50;100346.28;5095389;27;45221;-58
2023/09/18 05:39:56;;;;;;;;;2.00;2.00;;;;;19.00;92.07;100351.38;5092624;27;45510;-58
2023/09/18 05:42:22;;;;;;;;;2.00;2.00;;;;;19.04;92.08;100348.41;5091059;27;73154;-58
2023/09/18 05:44:47;;;;;;;;;2.00;2.00;;;;;19.07;91.43;100348.94;5087824;27;65615;-54
2023/09/18 05:47:13;;;;;;;;;2.00;2.00;;;;;19.13;92.05;100350.25;5080645;27;45506;-60
2023/09/18 05:49:38;;;;;;;;;4.00;2.33;;;;;19.16;92.07;100353.50;5073156;27;68807;-60
2023/09/18 05:52:03;;;;;;;;;3.67;3.67;;;;;19.23;90.97;100366.41;5068552;27;65377;-60
2023/09/18 05:54:29;;;;;;;;;4.00;2.00;;;;;19.29;90.88;100355.88;5087127;27;45461;-61
2023/09/18 05:56:54;;;;;;;;;3.00;3.00;;;;;19.37;90.89;100363.25;5083928;27;67934;-60
2023/09/18 05:59:20;;;;;;;;;4.33;3.00;;;;;19.44;91.23;100368.94;5089523;27;46099;-60
2023/09/18 06:01:45;;;;;;;;;3.67;3.33;;;;;19.51;90.17;100373.59;5089115;27;45377;-60
2023/09/18 06:04:12;;;;;;;;;3.67;3.67;;;;;19.59;90.19;100375.56;5071967;27;45703;-61
2023/09/18 06:06:38;;;;;;;;;2.00;2.00;;;;;19.65;89.92;100380.38;5086800;27;45628;-61
2023/09/18 06:09:03;;;;;;;;;4.00;4.00;;;;;19.70;89.10;100387.16;5079757;27;45383;-61
2023/09/18 06:11:28;;;;;;;;;3.00;3.00;;;;;19.74;88.82;100383.22;5090407;27;47345;-60
2023/09/18 06:13:54;;;;;;;;;3.00;3.00;;;;;19.79;88.66;100389.00;5081162;27;65653;-61
2023/09/18 06:16:19;;;;;;;;;5.50;4.00;;;;;19.84;88.78;100386.72;5087622;27;67295;-61
2023/09/18 06:18:45;;;;;;;;;3.25;2.25;;;;;19.89;88.65;100372.81;5082646;27;74561;-61
2023/09/18 06:21:10;;;;;;;;;3.25;3.25;;;;;19.92;87.96;100377.91;5085392;27;45372;-61
2023/09/18 06:23:35;;;;;;;;;4.67;4.67;;;;;19.98;87.77;100375.47;5092686;27;67202;-61
2023/09/18 06:26:01;;;;;;;;;5.00;5.00;;;;;20.07;87.33;100380.97;5082593;27;45526;-61
2023/09/18 06:28:27;;;;;;;;;3.25;3.25;;;;;20.22;87.43;100384.91;5064583;27;45316;-61
2023/09/18 06:30:53;;;;;;;;;6.33;4.00;;;;;20.39;85.96;100387.78;5092446;27;45549;-61
2023/09/18 06:33:19;;;;;;;;;3.67;3.67;;;;;20.47;85.53;100382.50;5087520;27;45900;-61
2023/09/18 06:35:44;;;;;;;;;3.67;3.00;;;;;20.50;84.29;100390.28;5087941;27;45561;-61
2023/09/18 06:38:12;;;;;;;;;3.67;3.67;;;;;20.71;84.90;100387.31;5088654;27;62972;-61
2023/09/18 06:40:37;;;;;;;;;3.00;3.00;;;;;21.39;81.80;100387.78;5087712;27;45393;-61
2023/09/18 06:43:02;;;;;;;;;5.00;5.00;;;;;21.44;79.17;100399.81;5094899;27;56322;-61
2023/09/18 06:45:28;;;;;;;;;6.00;5.00;;;;;21.43;80.97;100389.16;5083144;27;45343;-56
2023/09/18 06:47:53;;;;;;;;;4.00;3.00;;;;;21.35;80.74;100386.38;5081323;27;56203;-57
2023/09/18 06:50:19;;;;;;;;;3.33;3.33;;;;;21.31;80.55;100378.59;5093709;27;46423;-57
2023/09/18 06:52:44;;;;;;;;;5.00;5.00;;;;;21.28;80.20;100388.88;5089225;27;45584;-57
2023/09/18 06:55:10;;;;;;;;;3.00;3.00;;;;;21.32;80.61;100391.09;5085394;27;45530;-57
2023/09/18 06:57:35;;;;;;;;;7.00;5.00;;;;;21.48;80.01;100390.41;5086981;27;71633;-57
2023/09/18 07:00:01;;;;;;;;;3.00;3.00;;;;;21.66;79.59;100394.09;5090662;27;73831;-57
2023/09/18 07:02:27;;;;;;;;;3.00;3.00;;;;;21.78;79.52;100399.09;5083530;27;45557;-57
2023/09/18 07:04:52;;;;;;;;;6.33;4.00;;;;;21.81;77.78;100406.88;5091812;27;45556;-58
2023/09/18 07:07:24;;;;;;;;;4.00;4.00;;;;;21.86;78.23;100400.97;5089009;27;45941;-56
2023/09/18 07:09:50;;;;;;;;;6.00;4.00;;;;;21.94;77.84;100406.44;5089163;27;45222;-52
2023/09/18 07:12:15;;;;;;;;;3.00;3.00;;;;;22.10;76.96;100419.22;5091424;27;45477;-54
2023/09/18 07:14:40;;;;;;;;;5.67;5.67;;;;;22.21;76.66;100425.38;5098306;27;45532;-53
2023/09/18 07:17:06;;;;;;;;;3.00;3.00;;;;;22.26;76.20;100423.84;5090153;27;45997;-52
2023/09/18 07:19:32;;;;;;;;;6.33;5.00;;;;;22.23;75.83;100426.91;5087607;27;45328;-53
2023/09/18 07:21:57;;;;;;;;;2.25;2.25;;;;;22.15;75.34;100424.16;5070596;27;45413;-53
2023/09/18 07:24:24;;;;;;;;;6.00;4.00;;;;;22.07;74.88;100418.69;5084414;27;45540;-49
2023/09/18 07:26:49;;;;;;;;;5.00;5.00;;;;;22.07;75.80;100421.38;5084433;27;46296;-49
2023/09/18 07:29:15;;;;;;;;;6.00;5.00;;;;;22.19;75.41;100412.00;5070477;27;45326;-51
2023/09/18 07:31:44;;;;;;;;;4.33;4.33;;;;;22.26;74.43;100423.84;5070921;27;45398;-52
2023/09/18 07:34:10;;;;;;;;;5.00;5.00;;;;;22.42;73.65;100419.56;5083825;27;45815;-50
2023/09/18 07:36:36;;;;;;;;;5.00;5.00;;;;;22.56;74.54;100427.06;5084940;27;46061;-57
2023/09/18 07:39:01;;;;;;;;;5.00;5.00;;;;;22.58;73.68;100427.75;5091835;27;45531;-57
2023/09/18 07:41:26;;;;;;;;;7.00;5.00;;;;;22.54;73.36;100431.81;5085581;27;55972;-58
2023/09/18 07:43:52;;;;;;;;;4.00;4.00;;;;;22.61;72.97;100437.41;5084681;27;64802;-58
2023/09/18 07:46:18;;;;;;;;;5.00;5.00;;;;;22.72;72.95;100423.56;5090047;27;46853;-58
2023/09/18 07:48:43;;;;;;;;;2.00;0.50;;;;;22.69;71.78;100420.34;5094639;27;45547;-58
2023/09/18 07:51:12;;;;;;;;;4.00;4.00;;;;;22.60;69.89;100420.28;5090387;27;67728;-58
2023/09/18 07:53:37;;;;;;;;;6.33;5.67;;;;;22.48;71.41;100427.03;5074612;27;45527;-58
2023/09/18 07:56:04;;;;;;;;;7.00;4.33;;;;;22.37;71.62;100422.78;5098186;27;45912;-58
2023/09/18 07:58:30;;;;;;;;;4.67;4.00;;;;;22.30;71.56;100425.22;5094124;27;45476;-58
2023/09/18 08:00:57;;;;;;;;;4.33;4.33;;;;;22.26;71.25;100429.28;5089626;27;45428;-58
2023/09/18 08:03:23;;;;;;;;;5.00;5.00;;;;;22.22;71.24;100440.59;5093188;27;45372;-58
2023/09/18 08:05:55;;;;;;;;;3.67;3.67;;;;;22.17;72.07;100435.66;5091228;27;48060;-58
2023/09/18 08:08:21;;;;;;;;;6.33;4.33;;;;;22.25;71.39;100438.44;5065986;27;45568;-59
2023/09/18 08:10:47;;;;;;;;;4.67;3.00;;;;;22.39;71.44;100434.28;5096649;27;45644;-57
2023/09/18 08:13:13;;;;;;;;;4.33;4.33;;;;;22.47;71.02;100430.75;5092834;27;45694;-58
2023/09/18 08:15:38;;;;;;;;;4.00;4.00;;;;;22.56;70.75;100431.63;5077456;27;46010;-59
2023/09/18 08:18:04;;;;;;;;;4.00;4.00;;;;;22.61;68.23;100426.56;5070941;27;45575;-58
2023/09/18 08:20:30;;;;;;;;;4.00;4.00;;;;;22.64;70.02;100428.94;5087044;27;66090;-58
2023/09/18 08:22:55;;;;;;;;;5.67;4.33;;;;;22.84;70.60;100431.38;5092491;27;46092;-58
2023/09/18 08:25:20;;;;;;;;;5.67;4.33;;;;;23.00;69.81;100426.00;5088772;27;45989;-58
2023/09/18 08:27:47;;;;;;;;;4.67;4.00;;;;;23.07;69.06;100434.31;5091646;27;70944;-58
2023/09/18 08:30:15;;;;;;;;;4.00;4.00;;;;;23.17;67.69;100432.31;5098540;27;45587;-58
2023/09/18 08:32:41;;;;;;;;;7.00;5.00;;;;;23.25;68.63;100435.03;5092703;27;45478;-58
2023/09/18 08:35:08;;;;;;;;;5.00;3.33;;;;;23.22;68.16;100429.94;5096091;27;46290;-58
2023/09/18 08:37:33;;;;;;;;;4.00;4.00;;;;;23.16;67.17;100425.19;5090145;27;45574;-58
2023/09/18 08:40:00;;;;;;;;;3.00;3.00;;;;;23.12;66.61;100440.91;5089114;27;63696;-58
2023/09/18 08:42:30;;;;;;;;;3.00;3.00;;;;;23.16;67.25;100441.47;5064482;27;45397;-58
2023/09/18 08:44:58;;;;;;;;;3.00;3.00;;;;;23.16;65.53;100452.31;5099078;27;46489;-58
2023/09/18 08:47:24;;;;;;;;;2.00;2.00;;;;;23.13;66.93;100449.91;5080783;27;45522;-58
2023/09/18 08:49:50;;;;;;;;;4.00;4.00;;;;;23.16;66.14;100449.59;5073584;27;48639;-58
2023/09/18 08:52:15;;;;;;;;;6.00;4.00;;;;;23.12;67.18;100457.19;5083968;27;45484;-58
2023/09/18 08:54:42;;;;;;;;;3.33;3.33;;;;;23.22;66.35;100454.34;5087022;27;74293;-57
2023/09/18 08:57:09;;;;;;;;;3.67;3.67;;;;;23.19;66.38;100453.84;5078475;28;45413;-57
2023/09/18 08:59:36;;;;;;;;;4.33;3.00;;;;;23.09;65.77;100456.69;5056873;27;45643;-57
2023/09/18 09:02:02;;;;;;;;;5.33;4.00;;;;;22.98;65.88;100451.56;5097268;27;45374;-58
2023/09/18 09:04:28;;;;;;;;;4.67;3.00;;;;;23.00;65.15;100452.25;5097404;27;45378;-57
2023/09/18 09:06:53;;;;;;;;;3.67;3.67;;;;;23.53;66.69;100460.97;5067043;28;45441;-57
2023/09/18 09:09:19;;;;;;;;;4.00;3.33;;;;;25.56;65.18;100447.75;5062657;27;45346;-57
2023/09/18 09:11:51;;;;;;;;;3.33;3.00;;;;;27.42;61.08;100459.69;5068576;27;45518;-58
2023/09/18 09:14:21;;;;;;;;;5.33;5.00;;;;;28.32;56.07;100462.69;5092591;27;61691;-58
2023/09/18 09:16:51;;;;;;;;;4.00;3.00;;;;;28.67;53.91;100447.09;5089391;27;45710;-56
2023/09/18 09:19:17;;;;;;;;;3.00;3.00;;;;;29.14;49.85;100449.13;5069717;27;45513;-56
2023/09/18 09:21:44;;;;;;;;;2.00;2.00;;;;;29.34;52.45;100435.50;5086784;27;45872;-56
2023/09/18 09:24:13;;;;;;;;;3.25;3.25;;;;;30.26;48.40;100449.34;5075257;27;46632;-55
2023/09/18 09:26:40;;;;;;;;;2.00;2.00;;;;;30.25;50.68;100446.81;5084443;27;45442;-55
2023/09/18 09:29:21;;;;;;;;;3.00;3.00;;;;;30.36;50.84;100438.75;5089844;27;45306;-56
2023/09/18 09:31:47;;;;;;;;;4.75;3.00;;;;;31.53;47.80;100441.50;5063762;28;45667;-56
2023/09/18 09:34:25;;;;;;;;;2.75;2.00;;;;;33.26;44.06;100438.69;5088333;27;45391;-56
2023/09/18 09:36:55;;;;;;;;;2.00;2.00;;;;;34.46;39.56;100429.34;5087725;27;45468;-56
2023/09/18 09:39:24;;;;;;;;;3.25;3.25;;;;;34.66;38.47;100442.72;5090570;27;45699;-57
2023/09/18 09:41:50;;;;;;;;;3.00;2.50;;;;;34.74;39.47;100439.56;5076058;27;45772;-56
2023/09/18 09:44:16;;;;;;;;;4.00;3.25;;;;;35.58;38.14;100440.00;5095610;27;45425;-56
2023/09/18 09:46:48;;;;;;;;;2.00;2.00;;;;;35.89;33.28;100441.31;5094929;27;56569;-56
2023/09/18 09:49:16;;;;;;;;;3.25;3.00;;;;;36.05;37.50;100444.28;5094294;27;45532;-57
2023/09/18 09:51:42;;;;;;;;;3.00;2.75;;;;;36.27;35.42;100438.78;5072473;27;45495;-56
2023/09/18 09:54:07;;;;;;;;;2.25;2.25;;;;;35.84;37.09;100449.50;5056364;27;47127;-56
2023/09/18 09:56:44;;;;;;;;;1.00;1.00;;;;;35.35;37.96;100450.13;5093989;27;45670;-57
2023/09/18 09:59:11;;;;;;;;;2.50;2.50;;;;;35.40;36.49;100458.50;5092817;27;45636;-57
2023/09/18 10:01:37;;;;;;;;;1.25;1.25;;;;;35.93;35.01;100448.00;5059561;27;45731;-57
2023/09/18 10:04:10;;;;;;;;;3.50;2.75;;;;;36.70;34.25;100445.44;5091738;27;47042;-57
2023/09/18 10:06:36;;;;;;;;;2.00;2.00;;;;;37.20;35.51;100454.53;5096414;27;45458;-57
2023/09/18 10:09:07;;;;;;;;;3.50;2.75;;;;;37.44;31.42;100442.28;5076961;27;45363;-57
2023/09/18 10:11:36;;;;;;;;;1.00;1.00;;;;;37.66;33.42;100448.56;5070751;27;45511;-57
2023/09/18 10:14:08;;;;;;;;;1.75;1.75;;;;;38.05;32.66;100445.50;5093656;27;46353;-57
2023/09/18 10:16:35;;;;;;;;;1.25;1.25;;;;;38.11;28.91;100446.38;5072853;27;45509;-58
2023/09/18 10:19:09;;;;;;;;;2.00;2.00;;;;;38.15;32.46;100450.28;5075176;27;45363;-57
2023/09/18 10:21:48;;;;;;;;;2.00;2.00;;;;;38.11;29.61;100459.41;5096893;27;45434;-58
2023/09/18 10:24:26;;;;;;;;;3.75;2.75;;;;;38.09;31.43;100450.53;5090375;27;46067;-57
2023/09/18 10:26:54;;;;;;;;;1.75;1.75;;;;;38.24;31.95;100450.59;5093091;27;45658;-57
2023/09/18 10:29:21;;;;;;;;;1.25;1.25;;;;;38.32;30.51;100450.09;5099562;27;45464;-57
2023/09/18 10:31:47;;;;;;;;;1.75;1.00;;;;;38.41;30.02;100449.56;5097606;27;45445;-57
2023/09/18 10:34:13;;;;;;;;;1.75;1.00;;;;;38.28;29.45;100459.25;5096939;27;45559;-57
2023/09/18 10:36:41;;;;;;;;;1.75;1.75;;;;;37.94;31.59;100456.81;5079226;27;45513;-58
2023/09/18 10:39:10;;;;;;;;;1.00;1.00;;;;;37.93;29.48;100456.00;5092712;27;45398;-57
2023/09/18 10:41:36;;;;;;;;;1.25;1.25;;;;;37.54;29.19;100459.84;5077499;27;45405;-57
2023/09/18 10:44:04;;;;;;;;;3.00;2.00;;;;;37.23;30.19;100458.72;5063423;27;47382;-57
2023/09/18 10:46:29;;;;;;;;;1.25;1.25;;;;;37.10;30.41;100448.06;5079718;27;45319;-57
2023/09/18 10:48:55;;;;;;;;;0.75;0.75;;;;;37.04;31.50;100449.94;5077128;27;52464;-58
2023/09/18 10:51:21;;;;;;;;;1.00;1.00;;;;;36.25;29.38;100452.03;5094648;27;49747;-58
2023/09/18 10:53:48;;;;;;;;;2.00;1.25;;;;;35.70;30.54;100446.25;5088755;27;46188;-58
2023/09/18 10:56:16;;;;;;;;;2.80;2.80;;;;;35.07;33.61;100443.53;5094012;27;45324;-57
2023/09/18 10:58:42;;;;;;;;;3.00;2.00;;;;;34.89;32.53;100441.00;5095565;27;45457;-58
2023/09/18 11:01:11;;;;;;;;;0.50;0.00;;;;;34.72;32.46;100444.50;5096343;27;45509;-57
2023/09/18 11:03:37;;;;;;;;;1.25;1.25;;;;;34.58;32.74;100443.13;5091652;27;46269;-57
2023/09/18 11:06:10;;;;;;;;;1.00;1.00;;;;;34.70;33.94;100465.16;5093528;27;45378;-56
2023/09/18 11:08:43;;;;;;;;;3.50;2.25;;;;;34.67;33.46;100449.91;5092736;27;46246;-57
2023/09/18 11:11:14;;;;;;;;;1.00;1.00;;;;;34.63;33.03;100452.31;5094348;27;45437;-57
2023/09/18 11:13:43;;;;;;;;;1.75;1.75;;;;;34.62;33.33;100450.63;5075586;27;47091;-57
2023/09/18 11:16:27;;;;;;;;;1.00;1.00;;;;;34.60;31.50;100441.78;5073855;27;45312;-57
2023/09/18 11:19:17;;;;;;;;;2.00;2.00;;;;;34.37;32.04;100450.97;5092497;27;45408;-57
2023/09/18 11:21:43;;;;;;;;;1.00;1.00;;;;;34.05;33.69;100445.81;5075123;27;45392;-57